METAR Data
IDs: Format: Raw Decoded Include TAF

Data at: 1231 UTC 26 Feb 2021

LRBM 261200Z 18003KT CAVOK 15/06 Q1026